sensor_id;sensor_type;location;lat;lon;timestamp;temperature;humidity
16655;DHT22;8441;51.344;7.022;2023-09-12T00:01:06;19.80;99.90
16655;DHT22;8441;51.344;7.022;2023-09-12T00:03:34;19.80;99.90
16655;DHT22;8441;51.344;7.022;2023-09-12T00:06:02;19.80;99.90
16655;DHT22;8441;51.344;7.022;2023-09-12T00:08:30;19.70;99.90
16655;DHT22;8441;51.344;7.022;2023-09-12T00:11:01;19.70;99.90
16655;DHT22;8441;51.344;7.022;2023-09-12T00:13:31;19.60;99.90
16655;DHT22;8441;51.344;7.022;2023-09-12T00:15:58;19.70;99.90
16655;DHT22;8441;51.344;7.022;2023-09-12T00:18:26;19.60;99.90
16655;DHT22;8441;51.344;7.022;2023-09-12T00:20:53;19.50;99.90
16655;DHT22;8441;51.344;7.022;2023-09-12T00:23:21;19.50;99.90
16655;DHT22;8441;51.344;7.022;2023-09-12T00:25:49;19.40;99.90
16655;DHT22;8441;51.344;7.022;2023-09-12T00:28:16;19.40;99.90
16655;DHT22;8441;51.344;7.022;2023-09-12T00:30:45;19.40;99.90
16655;DHT22;8441;51.344;7.022;2023-09-12T00:33:12;19.40;99.90
16655;DHT22;8441;51.344;7.022;2023-09-12T00:35:39;19.50;99.90
16655;DHT22;8441;51.344;7.022;2023-09-12T00:38:08;19.50;99.90
16655;DHT22;8441;51.344;7.022;2023-09-12T00:40:35;19.60;99.90
16655;DHT22;8441;51.344;7.022;2023-09-12T00:43:03;19.70;99.90
16655;DHT22;8441;51.344;7.022;2023-09-12T00:45:30;19.70;99.90
16655;DHT22;8441;51.344;7.022;2023-09-12T00:48:00;19.60;99.90
16655;DHT22;8441;51.344;7.022;2023-09-12T00:50:30;19.50;99.90
16655;DHT22;8441;51.344;7.022;2023-09-12T00:52:58;19.50;99.90
16655;DHT22;8441;51.344;7.022;2023-09-12T00:55:28;19.40;99.90
16655;DHT22;8441;51.344;7.022;2023-09-12T00:57:55;19.30;99.90
16655;DHT22;8441;51.344;7.022;2023-09-12T01:00:23;19.20;99.90
16655;DHT22;8441;51.344;7.022;2023-09-12T01:02:51;19.30;99.90
16655;DHT22;8441;51.344;7.022;2023-09-12T01:05:22;19.30;99.90
16655;DHT22;8441;51.344;7.022;2023-09-12T01:07:49;19.40;99.90
16655;DHT22;8441;51.344;7.022;2023-09-12T01:10:17;19.30;99.90
16655;DHT22;8441;51.344;7.022;2023-09-12T01:12:44;19.40;99.90
16655;DHT22;8441;51.344;7.022;2023-09-12T01:15:12;19.40;99.90
16655;DHT22;8441;51.344;7.022;2023-09-12T01:17:41;19.40;99.90
16655;DHT22;8441;51.344;7.022;2023-09-12T01:20:13;19.40;99.90
16655;DHT22;8441;51.344;7.022;2023-09-12T01:22:55;19.40;99.90
16655;DHT22;8441;51.344;7.022;2023-09-12T01:25:47;19.40;99.90
16655;DHT22;8441;51.344;7.022;2023-09-12T01:28:23;19.40;99.90
16655;DHT22;8441;51.344;7.022;2023-09-12T01:30:52;19.30;99.90
16655;DHT22;8441;51.344;7.022;2023-09-12T01:33:20;19.20;99.90
16655;DHT22;8441;51.344;7.022;2023-09-12T01:35:48;19.20;99.90
16655;DHT22;8441;51.344;7.022;2023-09-12T01:38:15;19.20;99.90
16655;DHT22;8441;51.344;7.022;2023-09-12T01:40:46;19.10;99.90
16655;DHT22;8441;51.344;7.022;2023-09-12T01:43:17;19.10;99.90
16655;DHT22;8441;51.344;7.022;2023-09-12T01:45:48;19.10;99.90
16655;DHT22;8441;51.344;7.022;2023-09-12T01:48:19;19.20;99.90
16655;DHT22;8441;51.344;7.022;2023-09-12T01:50:46;19.20;99.90
16655;DHT22;8441;51.344;7.022;2023-09-12T01:53:14;19.20;99.90
16655;DHT22;8441;51.344;7.022;2023-09-12T01:55:42;19.20;99.90
16655;DHT22;8441;51.344;7.022;2023-09-12T01:58:10;19.20;99.90
16655;DHT22;8441;51.344;7.022;2023-09-12T02:00:38;19.20;99.90
16655;DHT22;8441;51.344;7.022;2023-09-12T02:03:07;19.20;99.90
16655;DHT22;8441;51.344;7.022;2023-09-12T02:05:35;19.20;99.90
16655;DHT22;8441;51.344;7.022;2023-09-12T02:08:03;19.00;99.90
16655;DHT22;8441;51.344;7.022;2023-09-12T02:10:30;19.00;99.90
16655;DHT22;8441;51.344;7.022;2023-09-12T02:12:58;18.90;99.90
16655;DHT22;8441;51.344;7.022;2023-09-12T02:15:25;18.90;99.90
16655;DHT22;8441;51.344;7.022;2023-09-12T02:17:52;18.80;99.90
16655;DHT22;8441;51.344;7.022;2023-09-12T02:20:21;18.80;99.90
16655;DHT22;8441;51.344;7.022;2023-09-12T02:22:48;18.80;99.90
16655;DHT22;8441;51.344;7.022;2023-09-12T02:25:16;18.90;99.90
16655;DHT22;8441;51.344;7.022;2023-09-12T02:27:43;18.90;99.90
16655;DHT22;8441;51.344;7.022;2023-09-12T02:30:10;18.90;99.90
16655;DHT22;8441;51.344;7.022;2023-09-12T02:32:37;18.90;99.90
16655;DHT22;8441;51.344;7.022;2023-09-12T02:35:05;18.90;99.90
16655;DHT22;8441;51.344;7.022;2023-09-12T02:37:34;18.80;99.90
16655;DHT22;8441;51.344;7.022;2023-09-12T02:40:01;18.90;99.90
16655;DHT22;8441;51.344;7.022;2023-09-12T02:42:30;18.90;99.90
16655;DHT22;8441;51.344;7.022;2023-09-12T02:44:57;18.90;99.90
16655;DHT22;8441;51.344;7.022;2023-09-12T02:47:24;18.90;99.90
16655;DHT22;8441;51.344;7.022;2023-09-12T02:49:51;19.00;99.90
16655;DHT22;8441;51.344;7.022;2023-09-12T02:52:18;19.10;99.90
16655;DHT22;8441;51.344;7.022;2023-09-12T02:54:47;19.10;99.90
16655;DHT22;8441;51.344;7.022;2023-09-12T02:57:14;19.10;99.90
16655;DHT22;8441;51.344;7.022;2023-09-12T02:59:41;19.10;99.90
16655;DHT22;8441;51.344;7.022;2023-09-12T03:02:08;19.20;99.90
16655;DHT22;8441;51.344;7.022;2023-09-12T03:04:36;19.20;99.90
16655;DHT22;8441;51.344;7.022;2023-09-12T03:07:03;19.20;99.90
16655;DHT22;8441;51.344;7.022;2023-09-12T03:09:30;19.20;99.90
16655;DHT22;8441;51.344;7.022;2023-09-12T03:12:01;19.20;99.90
16655;DHT22;8441;51.344;7.022;2023-09-12T03:14:28;19.20;99.90
16655;DHT22;8441;51.344;7.022;2023-09-12T03:16:55;19.00;99.90
16655;DHT22;8441;51.344;7.022;2023-09-12T03:19:22;19.00;99.90
16655;DHT22;8441;51.344;7.022;2023-09-12T03:21:50;19.00;99.90
16655;DHT22;8441;51.344;7.022;2023-09-12T03:24:17;19.00;99.90
16655;DHT22;8441;51.344;7.022;2023-09-12T03:26:46;19.10;99.90
16655;DHT22;8441;51.344;7.022;2023-09-12T03:29:15;19.10;99.90
16655;DHT22;8441;51.344;7.022;2023-09-12T03:31:42;19.20;99.90
16655;DHT22;8441;51.344;7.022;2023-09-12T03:34:10;19.10;99.90
16655;DHT22;8441;51.344;7.022;2023-09-12T03:36:37;19.00;99.90
16655;DHT22;8441;51.344;7.022;2023-09-12T03:39:04;19.00;99.90
16655;DHT22;8441;51.344;7.022;2023-09-12T03:41:34;19.00;99.90
16655;DHT22;8441;51.344;7.022;2023-09-12T03:44:01;18.90;99.90
16655;DHT22;8441;51.344;7.022;2023-09-12T03:46:30;18.90;99.90
16655;DHT22;8441;51.344;7.022;2023-09-12T03:48:57;18.70;99.90
16655;DHT22;8441;51.344;7.022;2023-09-12T03:51:24;18.70;99.90
16655;DHT22;8441;51.344;7.022;2023-09-12T03:53:51;18.80;99.90
16655;DHT22;8441;51.344;7.022;2023-09-12T03:56:18;18.80;99.90
16655;DHT22;8441;51.344;7.022;2023-09-12T03:58:46;18.80;99.90
16655;DHT22;8441;51.344;7.022;2023-09-12T04:01:13;18.90;99.90
16655;DHT22;8441;51.344;7.022;2023-09-12T04:03:42;18.90;99.90
16655;DHT22;8441;51.344;7.022;2023-09-12T04:06:10;18.80;99.90
16655;DHT22;8441;51.344;7.022;2023-09-12T04:08:37;18.80;99.90
16655;DHT22;8441;51.344;7.022;2023-09-12T04:11:04;18.80;99.90
16655;DHT22;8441;51.344;7.022;2023-09-12T04:13:31;18.90;99.90
16655;DHT22;8441;51.344;7.022;2023-09-12T04:15:59;18.80;99.90
16655;DHT22;8441;51.344;7.022;2023-09-12T04:18:26;18.80;99.90
16655;DHT22;8441;51.344;7.022;2023-09-12T04:20:55;18.80;99.90
16655;DHT22;8441;51.344;7.022;2023-09-12T04:23:25;18.90;99.90
16655;DHT22;8441;51.344;7.022;2023-09-12T04:25:52;18.90;99.90
16655;DHT22;8441;51.344;7.022;2023-09-12T04:28:19;18.90;99.90
16655;DHT22;8441;51.344;7.022;2023-09-12T04:30:47;18.80;99.90
16655;DHT22;8441;51.344;7.022;2023-09-12T04:33:14;18.80;99.90
16655;DHT22;8441;51.344;7.022;2023-09-12T04:35:41;18.80;99.90
16655;DHT22;8441;51.344;7.022;2023-09-12T04:38:10;18.80;99.90
16655;DHT22;8441;51.344;7.022;2023-09-12T04:40:37;18.90;99.90
16655;DHT22;8441;51.344;7.022;2023-09-12T04:43:05;19.00;99.90
16655;DHT22;8441;51.344;7.022;2023-09-12T04:45:33;19.00;99.90
16655;DHT22;8441;51.344;7.022;2023-09-12T04:48:00;19.00;99.90
16655;DHT22;8441;51.344;7.022;2023-09-12T04:50:28;19.00;99.90
16655;DHT22;8441;51.344;7.022;2023-09-12T04:52:55;19.00;99.90
16655;DHT22;8441;51.344;7.022;2023-09-12T04:55:23;19.10;99.90
16655;DHT22;8441;51.344;7.022;2023-09-12T04:57:50;19.20;99.90
16655;DHT22;8441;51.344;7.022;2023-09-12T05:00:18;19.20;99.90
16655;DHT22;8441;51.344;7.022;2023-09-12T05:02:45;19.20;99.90
16655;DHT22;8441;51.344;7.022;2023-09-12T05:05:12;19.10;99.90
16655;DHT22;8441;51.344;7.022;2023-09-12T05:07:39;19.10;99.90
16655;DHT22;8441;51.344;7.022;2023-09-12T05:10:07;19.20;99.90
16655;DHT22;8441;51.344;7.022;2023-09-12T05:12:35;19.20;99.90
16655;DHT22;8441;51.344;7.022;2023-09-12T05:15:03;19.50;99.90
16655;DHT22;8441;51.344;7.022;2023-09-12T05:17:30;19.50;99.90
16655;DHT22;8441;51.344;7.022;2023-09-12T05:19:58;19.50;99.90
16655;DHT22;8441;51.344;7.022;2023-09-12T05:22:25;19.00;99.90
16655;DHT22;8441;51.344;7.022;2023-09-12T05:24:53;18.60;99.90
16655;DHT22;8441;51.344;7.022;2023-09-12T05:27:20;18.50;99.90
16655;DHT22;8441;51.344;7.022;2023-09-12T05:29:48;18.40;99.90
16655;DHT22;8441;51.344;7.022;2023-09-12T05:32:15;18.40;99.90
16655;DHT22;8441;51.344;7.022;2023-09-12T05:34:43;18.30;99.90
16655;DHT22;8441;51.344;7.022;2023-09-12T05:37:11;18.30;99.90
16655;DHT22;8441;51.344;7.022;2023-09-12T05:39:38;18.30;99.90
16655;DHT22;8441;51.344;7.022;2023-09-12T05:42:05;18.30;99.90
16655;DHT22;8441;51.344;7.022;2023-09-12T05:44:32;18.20;99.90
16655;DHT22;8441;51.344;7.022;2023-09-12T05:47:01;18.20;99.90
16655;DHT22;8441;51.344;7.022;2023-09-12T05:49:28;18.30;99.90
16655;DHT22;8441;51.344;7.022;2023-09-12T05:51:55;18.40;99.90
16655;DHT22;8441;51.344;7.022;2023-09-12T05:54:23;18.60;99.90
16655;DHT22;8441;51.344;7.022;2023-09-12T05:56:50;18.70;99.90
16655;DHT22;8441;51.344;7.022;2023-09-12T05:59:18;18.80;99.90
16655;DHT22;8441;51.344;7.022;2023-09-12T06:01:45;18.80;99.90
16655;DHT22;8441;51.344;7.022;2023-09-12T06:04:16;18.90;99.90
16655;DHT22;8441;51.344;7.022;2023-09-12T06:06:43;18.80;99.90
16655;DHT22;8441;51.344;7.022;2023-09-12T06:09:11;18.80;99.90
16655;DHT22;8441;51.344;7.022;2023-09-12T06:11:38;18.80;99.90
16655;DHT22;8441;51.344;7.022;2023-09-12T06:14:05;18.90;99.90
16655;DHT22;8441;51.344;7.022;2023-09-12T06:16:32;18.90;99.90
16655;DHT22;8441;51.344;7.022;2023-09-12T06:18:59;19.00;99.90
16655;DHT22;8441;51.344;7.022;2023-09-12T06:21:28;18.90;99.90
16655;DHT22;8441;51.344;7.022;2023-09-12T06:24:09;18.90;99.90
16655;DHT22;8441;51.344;7.022;2023-09-12T06:26:36;18.80;99.90
16655;DHT22;8441;51.344;7.022;2023-09-12T06:29:04;18.70;99.90
16655;DHT22;8441;51.344;7.022;2023-09-12T06:31:31;18.50;99.90
16655;DHT22;8441;51.344;7.022;2023-09-12T06:33:58;18.50;99.90
16655;DHT22;8441;51.344;7.022;2023-09-12T06:36:27;18.50;99.90
16655;DHT22;8441;51.344;7.022;2023-09-12T06:38:55;18.50;99.90
16655;DHT22;8441;51.344;7.022;2023-09-12T06:41:23;18.40;99.90
16655;DHT22;8441;51.344;7.022;2023-09-12T06:43:50;18.40;99.90
16655;DHT22;8441;51.344;7.022;2023-09-12T06:46:18;18.40;99.90
16655;DHT22;8441;51.344;7.022;2023-09-12T06:48:45;18.30;99.90
16655;DHT22;8441;51.344;7.022;2023-09-12T06:51:14;18.20;99.90
16655;DHT22;8441;51.344;7.022;2023-09-12T06:53:43;18.10;99.90
16655;DHT22;8441;51.344;7.022;2023-09-12T06:56:10;18.10;99.90
16655;DHT22;8441;51.344;7.022;2023-09-12T06:58:37;18.20;99.90
16655;DHT22;8441;51.344;7.022;2023-09-12T07:01:04;18.30;99.90
16655;DHT22;8441;51.344;7.022;2023-09-12T07:03:32;18.40;99.90
16655;DHT22;8441;51.344;7.022;2023-09-12T07:06:00;18.40;99.90
16655;DHT22;8441;51.344;7.022;2023-09-12T07:08:28;18.40;99.90
16655;DHT22;8441;51.344;7.022;2023-09-12T07:10:57;18.40;99.90
16655;DHT22;8441;51.344;7.022;2023-09-12T07:13:25;18.50;99.90
16655;DHT22;8441;51.344;7.022;2023-09-12T07:15:52;18.50;99.90
16655;DHT22;8441;51.344;7.022;2023-09-12T07:18:20;18.50;99.90
16655;DHT22;8441;51.344;7.022;2023-09-12T07:20:47;18.40;99.90
16655;DHT22;8441;51.344;7.022;2023-09-12T07:23:23;18.30;99.90
16655;DHT22;8441;51.344;7.022;2023-09-12T07:25:50;18.40;99.90
16655;DHT22;8441;51.344;7.022;2023-09-12T07:28:19;18.50;99.90
16655;DHT22;8441;51.344;7.022;2023-09-12T07:30:46;18.50;99.90
16655;DHT22;8441;51.344;7.022;2023-09-12T07:33:14;18.50;99.90
16655;DHT22;8441;51.344;7.022;2023-09-12T07:35:41;18.70;99.90
16655;DHT22;8441;51.344;7.022;2023-09-12T07:38:08;18.80;99.90
16655;DHT22;8441;51.344;7.022;2023-09-12T07:40:35;19.00;99.90
16655;DHT22;8441;51.344;7.022;2023-09-12T07:43:03;19.30;99.90
16655;DHT22;8441;51.344;7.022;2023-09-12T07:45:31;19.60;99.90
16655;DHT22;8441;51.344;7.022;2023-09-12T07:48:03;19.80;99.90
16655;DHT22;8441;51.344;7.022;2023-09-12T07:50:30;20.00;99.90
16655;DHT22;8441;51.344;7.022;2023-09-12T07:52:57;20.20;99.90
16655;DHT22;8441;51.344;7.022;2023-09-12T07:55:25;20.60;99.90
16655;DHT22;8441;51.344;7.022;2023-09-12T07:57:55;20.80;99.90
16655;DHT22;8441;51.344;7.022;2023-09-12T08:00:23;20.80;99.90
16655;DHT22;8441;51.344;7.022;2023-09-12T08:02:52;20.90;99.90
16655;DHT22;8441;51.344;7.022;2023-09-12T08:05:19;20.90;99.90
16655;DHT22;8441;51.344;7.022;2023-09-12T08:07:46;20.80;99.90
16655;DHT22;8441;51.344;7.022;2023-09-12T08:10:13;20.80;99.90
16655;DHT22;8441;51.344;7.022;2023-09-12T08:12:40;20.70;99.90
16655;DHT22;8441;51.344;7.022;2023-09-12T08:15:08;20.70;99.90
16655;DHT22;8441;51.344;7.022;2023-09-12T08:17:36;20.60;99.90
16655;DHT22;8441;51.344;7.022;2023-09-12T08:20:07;20.60;99.90
16655;DHT22;8441;51.344;7.022;2023-09-12T08:22:35;20.60;99.90
16655;DHT22;8441;51.344;7.022;2023-09-12T08:25:03;20.50;99.90
16655;DHT22;8441;51.344;7.022;2023-09-12T08:27:30;20.50;99.90
16655;DHT22;8441;51.344;7.022;2023-09-12T08:29:57;20.50;99.90
16655;DHT22;8441;51.344;7.022;2023-09-12T08:32:24;20.50;99.90
16655;DHT22;8441;51.344;7.022;2023-09-12T08:34:51;20.40;99.90
16655;DHT22;8441;51.344;7.022;2023-09-12T08:37:20;20.40;99.90
16655;DHT22;8441;51.344;7.022;2023-09-12T08:39:47;20.40;99.90
16655;DHT22;8441;51.344;7.022;2023-09-12T08:42:16;20.40;99.90
16655;DHT22;8441;51.344;7.022;2023-09-12T08:44:43;20.40;99.90
16655;DHT22;8441;51.344;7.022;2023-09-12T08:47:11;20.30;99.90
16655;DHT22;8441;51.344;7.022;2023-09-12T08:49:38;20.30;99.90
16655;DHT22;8441;51.344;7.022;2023-09-12T08:52:07;20.30;99.90
16655;DHT22;8441;51.344;7.022;2023-09-12T08:54:36;20.20;99.90
16655;DHT22;8441;51.344;7.022;2023-09-12T08:57:05;20.10;99.90
16655;DHT22;8441;51.344;7.022;2023-09-12T08:59:33;20.20;99.90
16655;DHT22;8441;51.344;7.022;2023-09-12T09:02:01;20.30;99.90
16655;DHT22;8441;51.344;7.022;2023-09-12T09:04:31;20.30;99.90
16655;DHT22;8441;51.344;7.022;2023-09-12T09:07:01;20.40;99.90
16655;DHT22;8441;51.344;7.022;2023-09-12T09:09:30;20.40;99.90
16655;DHT22;8441;51.344;7.022;2023-09-12T09:11:59;20.30;99.90
16655;DHT22;8441;51.344;7.022;2023-09-12T09:14:29;20.30;99.90
16655;DHT22;8441;51.344;7.022;2023-09-12T09:16:58;20.30;99.90
16655;DHT22;8441;51.344;7.022;2023-09-12T09:19:40;20.30;99.90
16655;DHT22;8441;51.344;7.022;2023-09-12T09:22:07;20.40;99.90
16655;DHT22;8441;51.344;7.022;2023-09-12T09:24:35;20.50;99.90
16655;DHT22;8441;51.344;7.022;2023-09-12T09:27:04;20.70;99.90
16655;DHT22;8441;51.344;7.022;2023-09-12T09:29:31;20.70;99.90
16655;DHT22;8441;51.344;7.022;2023-09-12T09:32:00;20.70;99.90
16655;DHT22;8441;51.344;7.022;2023-09-12T09:34:28;20.50;99.90
16655;DHT22;8441;51.344;7.022;2023-09-12T09:36:57;20.70;99.90
16655;DHT22;8441;51.344;7.022;2023-09-12T09:39:26;20.80;99.90
16655;DHT22;8441;51.344;7.022;2023-09-12T09:41:55;20.90;99.90
16655;DHT22;8441;51.344;7.022;2023-09-12T09:44:25;20.90;99.90
16655;DHT22;8441;51.344;7.022;2023-09-12T09:46:55;20.90;99.90
16655;DHT22;8441;51.344;7.022;2023-09-12T09:49:22;20.90;99.90
16655;DHT22;8441;51.344;7.022;2023-09-12T09:51:49;20.90;99.90
16655;DHT22;8441;51.344;7.022;2023-09-12T09:54:16;20.90;99.90
16655;DHT22;8441;51.344;7.022;2023-09-12T09:56:47;21.10;99.90
16655;DHT22;8441;51.344;7.022;2023-09-12T09:59:15;21.30;99.90
16655;DHT22;8441;51.344;7.022;2023-09-12T10:01:45;21.50;99.90
16655;DHT22;8441;51.344;7.022;2023-09-12T10:04:12;21.60;99.90
16655;DHT22;8441;51.344;7.022;2023-09-12T10:06:43;21.70;99.90
16655;DHT22;8441;51.344;7.022;2023-09-12T10:09:11;21.70;99.90
16655;DHT22;8441;51.344;7.022;2023-09-12T10:11:40;21.70;99.90
16655;DHT22;8441;51.344;7.022;2023-09-12T10:14:07;21.60;99.90
16655;DHT22;8441;51.344;7.022;2023-09-12T10:16:36;21.50;99.90
16655;DHT22;8441;51.344;7.022;2023-09-12T10:19:12;21.60;99.90
16655;DHT22;8441;51.344;7.022;2023-09-12T10:21:46;21.70;99.90
16655;DHT22;8441;51.344;7.022;2023-09-12T10:24:15;21.80;99.90
16655;DHT22;8441;51.344;7.022;2023-09-12T10:26:43;21.70;99.90
16655;DHT22;8441;51.344;7.022;2023-09-12T10:29:13;21.80;99.90
16655;DHT22;8441;51.344;7.022;2023-09-12T10:31:41;21.70;99.90
16655;DHT22;8441;51.344;7.022;2023-09-12T10:34:12;21.80;99.90
16655;DHT22;8441;51.344;7.022;2023-09-12T10:36:41;21.80;99.90
16655;DHT22;8441;51.344;7.022;2023-09-12T10:39:09;21.70;99.90
16655;DHT22;8441;51.344;7.022;2023-09-12T10:41:38;21.80;99.90
16655;DHT22;8441;51.344;7.022;2023-09-12T10:44:09;21.90;99.90
16655;DHT22;8441;51.344;7.022;2023-09-12T10:46:37;22.00;99.90
16655;DHT22;8441;51.344;7.022;2023-09-12T10:49:06;22.20;99.90
16655;DHT22;8441;51.344;7.022;2023-09-12T10:51:38;22.40;99.90
16655;DHT22;8441;51.344;7.022;2023-09-12T10:54:06;22.60;99.90
16655;DHT22;8441;51.344;7.022;2023-09-12T10:56:34;22.80;99.90
16655;DHT22;8441;51.344;7.022;2023-09-12T10:59:14;23.00;99.90
16655;DHT22;8441;51.344;7.022;2023-09-12T11:01:42;23.20;99.90
16655;DHT22;8441;51.344;7.022;2023-09-12T11:04:31;23.00;99.90
16655;DHT22;8441;51.344;7.022;2023-09-12T11:07:01;22.80;99.90
16655;DHT22;8441;51.344;7.022;2023-09-12T11:10:18;22.70;99.90
16655;DHT22;8441;51.344;7.022;2023-09-12T11:12:47;22.60;99.90
16655;DHT22;8441;51.344;7.022;2023-09-12T11:15:14;22.70;99.90
16655;DHT22;8441;51.344;7.022;2023-09-12T11:17:43;22.80;99.90
16655;DHT22;8441;51.344;7.022;2023-09-12T11:20:10;22.90;99.90
16655;DHT22;8441;51.344;7.022;2023-09-12T11:22:41;22.90;99.90
16655;DHT22;8441;51.344;7.022;2023-09-12T11:25:19;22.90;99.90
16655;DHT22;8441;51.344;7.022;2023-09-12T11:28:03;23.20;99.90
16655;DHT22;8441;51.344;7.022;2023-09-12T11:30:31;23.30;99.90
16655;DHT22;8441;51.344;7.022;2023-09-12T11:33:02;23.40;99.90
16655;DHT22;8441;51.344;7.022;2023-09-12T11:35:36;23.40;99.90
16655;DHT22;8441;51.344;7.022;2023-09-12T11:38:09;23.40;99.90
16655;DHT22;8441;51.344;7.022;2023-09-12T11:40:44;23.40;99.90
16655;DHT22;8441;51.344;7.022;2023-09-12T11:43:20;23.40;99.90
16655;DHT22;8441;51.344;7.022;2023-09-12T11:45:49;23.40;99.90
16655;DHT22;8441;51.344;7.022;2023-09-12T11:48:17;23.50;99.90
16655;DHT22;8441;51.344;7.022;2023-09-12T11:50:50;23.50;99.90
16655;DHT22;8441;51.344;7.022;2023-09-12T11:53:20;23.40;99.90
16655;DHT22;8441;51.344;7.022;2023-09-12T11:55:50;23.40;99.90
16655;DHT22;8441;51.344;7.022;2023-09-12T11:58:18;23.40;99.90
16655;DHT22;8441;51.344;7.022;2023-09-12T12:00:47;23.50;99.90
16655;DHT22;8441;51.344;7.022;2023-09-12T12:03:15;23.70;99.90
16655;DHT22;8441;51.344;7.022;2023-09-12T12:05:43;23.70;99.90
16655;DHT22;8441;51.344;7.022;2023-09-12T12:08:11;23.70;99.90
16655;DHT22;8441;51.344;7.022;2023-09-12T12:10:39;23.50;99.90
16655;DHT22;8441;51.344;7.022;2023-09-12T12:13:11;23.50;99.90
16655;DHT22;8441;51.344;7.022;2023-09-12T12:15:38;23.60;99.90
16655;DHT22;8441;51.344;7.022;2023-09-12T12:18:05;23.50;99.90
16655;DHT22;8441;51.344;7.022;2023-09-12T12:20:33;23.60;99.90
16655;DHT22;8441;51.344;7.022;2023-09-12T12:23:00;23.70;99.90
16655;DHT22;8441;51.344;7.022;2023-09-12T12:25:32;23.90;99.90
16655;DHT22;8441;51.344;7.022;2023-09-12T12:28:01;23.90;99.90
16655;DHT22;8441;51.344;7.022;2023-09-12T12:30:30;24.10;99.90
16655;DHT22;8441;51.344;7.022;2023-09-12T12:33:01;24.00;99.90
16655;DHT22;8441;51.344;7.022;2023-09-12T12:35:29;23.80;99.90
16655;DHT22;8441;51.344;7.022;2023-09-12T12:37:57;23.80;99.90
16655;DHT22;8441;51.344;7.022;2023-09-12T12:40:24;23.90;99.90
16655;DHT22;8441;51.344;7.022;2023-09-12T12:42:52;24.10;99.90
16655;DHT22;8441;51.344;7.022;2023-09-12T12:45:22;24.10;99.90
16655;DHT22;8441;51.344;7.022;2023-09-12T12:47:57;24.20;99.90
16655;DHT22;8441;51.344;7.022;2023-09-12T12:50:25;24.20;99.90
16655;DHT22;8441;51.344;7.022;2023-09-12T12:52:52;24.20;99.90
16655;DHT22;8441;51.344;7.022;2023-09-12T12:55:21;24.20;99.90
16655;DHT22;8441;51.344;7.022;2023-09-12T12:57:48;24.40;99.90
16655;DHT22;8441;51.344;7.022;2023-09-12T13:00:17;24.20;99.90
16655;DHT22;8441;51.344;7.022;2023-09-12T13:02:46;24.10;99.90
16655;DHT22;8441;51.344;7.022;2023-09-12T13:05:21;24.10;99.90
16655;DHT22;8441;51.344;7.022;2023-09-12T13:07:49;24.00;99.90
16655;DHT22;8441;51.344;7.022;2023-09-12T13:10:17;23.90;99.90
16655;DHT22;8441;51.344;7.022;2023-09-12T13:12:44;23.90;99.90
16655;DHT22;8441;51.344;7.022;2023-09-12T13:15:12;23.90;99.90
16655;DHT22;8441;51.344;7.022;2023-09-12T13:17:39;24.10;99.90
16655;DHT22;8441;51.344;7.022;2023-09-12T13:20:09;24.20;99.90
16655;DHT22;8441;51.344;7.022;2023-09-12T13:22:37;24.20;99.90
16655;DHT22;8441;51.344;7.022;2023-09-12T13:25:05;24.20;99.90
16655;DHT22;8441;51.344;7.022;2023-09-12T13:27:33;24.10;99.90
16655;DHT22;8441;51.344;7.022;2023-09-12T13:30:00;24.10;99.90
16655;DHT22;8441;51.344;7.022;2023-09-12T13:32:27;24.10;99.90
16655;DHT22;8441;51.344;7.022;2023-09-12T13:34:54;24.10;99.90
16655;DHT22;8441;51.344;7.022;2023-09-12T13:37:23;23.90;99.90
16655;DHT22;8441;51.344;7.022;2023-09-12T13:39:53;24.00;99.90
16655;DHT22;8441;51.344;7.022;2023-09-12T13:42:20;24.00;99.90
16655;DHT22;8441;51.344;7.022;2023-09-12T13:44:48;24.20;99.90
16655;DHT22;8441;51.344;7.022;2023-09-12T13:47:15;24.10;99.90
16655;DHT22;8441;51.344;7.022;2023-09-12T13:49:47;24.10;99.90
16655;DHT22;8441;51.344;7.022;2023-09-12T13:52:14;24.20;99.90
16655;DHT22;8441;51.344;7.022;2023-09-12T13:54:43;24.40;99.90
16655;DHT22;8441;51.344;7.022;2023-09-12T13:57:10;24.60;99.90
16655;DHT22;8441;51.344;7.022;2023-09-12T13:59:37;24.70;99.90
16655;DHT22;8441;51.344;7.022;2023-09-12T14:02:05;24.70;99.90
16655;DHT22;8441;51.344;7.022;2023-09-12T14:04:32;24.60;99.90
16655;DHT22;8441;51.344;7.022;2023-09-12T14:06:59;24.50;99.90
16655;DHT22;8441;51.344;7.022;2023-09-12T14:09:26;24.60;99.90
16655;DHT22;8441;51.344;7.022;2023-09-12T14:11:55;24.60;99.90
16655;DHT22;8441;51.344;7.022;2023-09-12T14:14:22;24.60;99.90
16655;DHT22;8441;51.344;7.022;2023-09-12T14:16:49;24.50;99.90
16655;DHT22;8441;51.344;7.022;2023-09-12T14:19:16;24.50;99.90
16655;DHT22;8441;51.344;7.022;2023-09-12T14:21:43;24.50;99.90
16655;DHT22;8441;51.344;7.022;2023-09-12T14:24:11;24.50;99.90
16655;DHT22;8441;51.344;7.022;2023-09-12T14:26:38;24.50;99.90
16655;DHT22;8441;51.344;7.022;2023-09-12T14:29:06;24.50;99.90
16655;DHT22;8441;51.344;7.022;2023-09-12T14:31:33;24.60;99.90
16655;DHT22;8441;51.344;7.022;2023-09-12T14:34:02;24.80;99.90
16655;DHT22;8441;51.344;7.022;2023-09-12T14:36:31;24.80;99.90
16655;DHT22;8441;51.344;7.022;2023-09-12T14:38:58;24.80;99.90
16655;DHT22;8441;51.344;7.022;2023-09-12T14:41:25;24.90;99.90
16655;DHT22;8441;51.344;7.022;2023-09-12T14:43:52;24.90;99.90
16655;DHT22;8441;51.344;7.022;2023-09-12T14:46:21;24.80;99.90
16655;DHT22;8441;51.344;7.022;2023-09-12T14:48:48;24.60;99.90
16655;DHT22;8441;51.344;7.022;2023-09-12T14:51:15;24.40;99.90
16655;DHT22;8441;51.344;7.022;2023-09-12T14:53:42;24.20;99.90
16655;DHT22;8441;51.344;7.022;2023-09-12T14:56:10;24.20;99.90
16655;DHT22;8441;51.344;7.022;2023-09-12T14:58:37;24.20;99.90
16655;DHT22;8441;51.344;7.022;2023-09-12T15:01:04;24.30;99.90
16655;DHT22;8441;51.344;7.022;2023-09-12T15:03:33;24.30;99.90
16655;DHT22;8441;51.344;7.022;2023-09-12T15:06:05;24.30;99.90
16655;DHT22;8441;51.344;7.022;2023-09-12T15:08:32;24.40;99.90
16655;DHT22;8441;51.344;7.022;2023-09-12T15:11:02;24.30;99.90
16655;DHT22;8441;51.344;7.022;2023-09-12T15:13:30;24.40;99.90
16655;DHT22;8441;51.344;7.022;2023-09-12T15:15:57;24.40;99.90
16655;DHT22;8441;51.344;7.022;2023-09-12T15:18:24;24.30;99.90
16655;DHT22;8441;51.344;7.022;2023-09-12T15:20:53;24.10;99.90
16655;DHT22;8441;51.344;7.022;2023-09-12T15:23:20;24.10;99.90
16655;DHT22;8441;51.344;7.022;2023-09-12T15:25:50;24.10;99.90
16655;DHT22;8441;51.344;7.022;2023-09-12T15:28:34;24.00;99.90
16655;DHT22;8441;51.344;7.022;2023-09-12T15:31:01;24.10;99.90
16655;DHT22;8441;51.344;7.022;2023-09-12T15:33:30;24.10;99.90
16655;DHT22;8441;51.344;7.022;2023-09-12T15:35:58;24.10;99.90
16655;DHT22;8441;51.344;7.022;2023-09-12T15:38:27;24.10;99.90
16655;DHT22;8441;51.344;7.022;2023-09-12T15:40:54;24.00;99.90
16655;DHT22;8441;51.344;7.022;2023-09-12T15:43:22;24.00;99.90
16655;DHT22;8441;51.344;7.022;2023-09-12T15:45:50;24.10;99.90
16655;DHT22;8441;51.344;7.022;2023-09-12T15:48:17;24.10;99.90
16655;DHT22;8441;51.344;7.022;2023-09-12T15:50:44;24.10;99.90
16655;DHT22;8441;51.344;7.022;2023-09-12T15:53:13;24.00;99.90